Time;durP1;ratioP1;P1;durP2;ratioP2;P2;SDS_P1;SDS_P2;PMS_P1;PMS_P2;Temp;Humidity;BMP_temperature;BMP_pressure;BME280_temperature;BME280_humidity;BME280_pressure;Samples;Min_cycle;Max_cycle;Signal;HPM_P1;HPM_P2
2022/12/17 13:08:03;;;;;;;;;;;;;;;-0.82;100.00;102565.56;5059937;28;19912;-82
2022/12/17 13:10:29;;;;;;;;;;;;;;;-0.76;100.00;102561.09;5058585;28;19908;-81
2022/12/17 13:12:56;;;;;;;;;;;;;;;-0.79;100.00;102566.31;5057962;28;20396;-82
2022/12/17 13:15:30;;;;;;;;;;;;;;;-0.93;100.00;102558.88;5058784;28;19912;-82
2022/12/17 13:18:18;;;;;;;;;;;;;;;-0.88;100.00;102564.78;5058596;28;19924;-81
2022/12/17 13:20:54;;;;;;;;;;;;;;;-0.93;100.00;102553.69;5058542;28;19986;-82
2022/12/17 13:23:31;;;;;;;;;;;;;;;-0.86;100.00;102564.78;5059318;28;19908;-82
2022/12/17 13:26:16;;;;;;;;;;;;;;;-0.85;100.00;102569.94;5057344;28;19916;-81
2022/12/17 13:28:43;;;;;;;;;;;;;;;-1.02;100.00;102560.78;5056932;28;19989;-82
2022/12/17 13:31:46;;;;;;;;;;;;;;;-1.04;100.00;102566.88;5058383;28;19908;-82
2022/12/17 13:34:19;;;;;;;;;;;;;;;-0.99;100.00;102566.78;4997698;28;19924;-81
2022/12/17 13:37:03;;;;;;;;;;;;;;;-1.07;100.00;102559.19;4996451;28;20005;-82
2022/12/17 13:39:31;;;;;;;;;;;;;;;-1.07;100.00;102558.31;4979544;28;19934;-81
2022/12/17 13:41:57;;;;;;;;;;;;;;;-1.05;100.00;102567.75;4997045;28;19914;-82
2022/12/17 13:44:24;;;;;;;;;;;;;;;-1.04;100.00;102561.69;4988566;28;20489;-81
2022/12/17 13:46:50;;;;;;;;;;;;;;;-1.07;100.00;102566.06;4996719;28;20669;-82
2022/12/17 13:49:21;;;;;;;;;;;;;;;-1.03;100.00;102567.72;4978920;28;19957;-82
2022/12/17 13:51:46;;;;;;;;;;;;;;;-1.15;100.00;102568.84;4996414;28;19921;-82
2022/12/17 13:54:16;;;;;;;;;;;;;;;-1.09;100.00;102578.22;4996649;28;19924;-82
2022/12/17 13:56:42;;;;;;;;;;;;;;;-1.15;100.00;102574.03;4997264;28;19910;-82
2022/12/17 13:59:16;;;;;;;;;;;;;;;-1.01;100.00;102568.53;4994931;28;20432;-82
2022/12/17 14:01:49;;;;;;;;;;;;;;;-0.97;100.00;102572.78;4996589;28;20004;-82
2022/12/17 14:04:25;;;;;;;;;;;;;;;-1.01;100.00;102560.78;5008488;28;19951;-81
2022/12/17 14:06:51;;;;;;;;;;;;;;;-1.04;100.00;102566.03;5074586;28;19945;-82
2022/12/17 14:09:17;;;;;;;;;;;;;;;-1.08;100.00;102566.97;5057094;28;19912;-82
2022/12/17 14:14:41;;;;;;;;;;;;;;;-1.06;100.00;102583.34;5058064;28;19923;-82
2022/12/17 14:17:15;;;;;;;;;;;;;;;-1.10;100.00;102584.28;5063982;28;19919;-81
2022/12/17 14:19:40;;;;;;;;;;;;;;;-1.09;100.00;102583.41;5063936;28;20565;-82
2022/12/17 14:22:06;;;;;;;;;;;;;;;-1.12;100.00;102589.50;5057073;28;19921;-81
2022/12/17 14:24:31;;;;;;;;;;;;;;;-1.13;100.00;102595.59;5064688;28;19920;-82
2022/12/17 14:26:58;;;;;;;;;;;;;;;-1.13;100.00;102602.47;5057086;28;19916;-81
2022/12/17 14:29:28;;;;;;;;;;;;;;;-1.10;100.00;102599.84;5073131;28;19912;-81
2022/12/17 14:31:58;;;;;;;;;;;;;;;-1.12;100.00;102599.03;5057492;28;20042;-81
2022/12/17 14:34:23;;;;;;;;;;;;;;;-1.13;100.00;102600.75;5056676;28;19931;-81
2022/12/17 14:36:59;;;;;;;;;;;;;;;-1.23;100.00;102593.22;5041137;28;20279;-82
2022/12/17 14:39:31;;;;;;;;;;;;;;;-1.25;100.00;102595.81;5057906;28;19920;-82
2022/12/17 14:42:24;;;;;;;;;;;;;;;-1.31;100.00;102601.97;5056554;28;19923;-82
2022/12/17 14:44:50;;;;;;;;;;;;;;;-1.38;100.00;102592.63;5056494;28;19919;-82
2022/12/17 14:47:18;;;;;;;;;;;;;;;-1.34;100.00;102612.41;5057133;28;19916;-82
2022/12/17 14:49:54;;;;;;;;;;;;;;;-1.45;100.00;102598.81;5063088;28;19909;-81
2022/12/17 14:52:24;;;;;;;;;;;;;;;-1.45;100.00;102602.25;5057179;28;19950;-82
2022/12/17 14:54:50;;;;;;;;;;;;;;;-1.56;100.00;102604.19;5056671;28;19924;-82
2022/12/17 14:57:22;;;;;;;;;;;;;;;-1.59;100.00;102603.38;5056226;28;19925;-82
2022/12/17 14:59:47;;;;;;;;;;;;;;;-1.63;100.00;102604.31;5056512;28;19953;-82
2022/12/17 15:02:18;;;;;;;;;;;;;;;-1.70;100.00;102611.34;5055435;28;20477;-82
2022/12/17 15:04:43;;;;;;;;;;;;;;;-1.74;100.00;102615.75;5057182;28;19923;-82
2022/12/17 15:07:12;;;;;;;;;;;;;;;-1.72;100.00;102619.16;5055952;28;20561;-81
2022/12/17 15:09:37;;;;;;;;;;;;;;;-1.69;100.00;102624.25;5056698;28;19912;-80
2022/12/17 15:12:03;;;;;;;;;;;;;;;-1.73;100.00;102619.19;5055101;28;19912;-81
2022/12/17 15:14:28;;;;;;;;;;;;;;;-1.85;100.00;102620.25;5055167;28;19955;-81
2022/12/17 15:16:55;;;;;;;;;;;;;;;-1.87;100.00;102622.88;5056866;28;19919;-81
2022/12/17 15:19:20;;;;;;;;;;;;;;;-1.95;100.00;102622.13;5057038;28;19997;-81
2022/12/17 15:21:46;;;;;;;;;;;;;;;-1.90;100.00;102619.47;5038976;28;19963;-81
2022/12/17 15:24:14;;;;;;;;;;;;;;;-2.00;100.00;102625.66;5056046;28;19912;-82
2022/12/17 15:26:39;;;;;;;;;;;;;;;-2.00;100.00;102641.19;5072155;28;19960;-82
2022/12/17 15:29:05;;;;;;;;;;;;;;;-2.04;100.00;102642.16;5038270;28;19967;-82
2022/12/17 15:31:30;;;;;;;;;;;;;;;-2.07;100.00;102643.91;5056392;28;19912;-81
2022/12/17 15:33:56;;;;;;;;;;;;;;;-2.07;100.00;102643.91;5039327;28;20364;-81
2022/12/17 15:36:21;;;;;;;;;;;;;;;-2.03;100.00;102644.69;5059491;28;19909;-81
2022/12/17 15:38:47;;;;;;;;;;;;;;;-2.11;100.00;102649.16;5061582;28;19923;-81
2022/12/17 15:43:56;;;;;;;;;;;;;;;-2.27;100.00;102648.50;5062805;28;19967;-82
2022/12/17 15:46:22;;;;;;;;;;;;;;;-2.30;100.00;102645.97;5057558;28;20364;-82
2022/12/17 15:48:47;;;;;;;;;;;;;;;-2.33;100.00;102651.19;5061102;28;19921;-82
2022/12/17 15:51:13;;;;;;;;;;;;;;;-2.35;100.00;102653.81;5062139;28;19916;-81
2022/12/17 15:53:38;;;;;;;;;;;;;;;-2.39;100.00;102653.88;5063175;28;20003;-81
2022/12/17 15:56:03;;;;;;;;;;;;;;;-2.38;100.00;102647.81;5062730;28;19920;-81
2022/12/17 15:58:29;;;;;;;;;;;;;;;-2.43;100.00;102654.81;5052723;28;20336;-82
2022/12/17 16:00:55;;;;;;;;;;;;;;;-2.42;100.00;102656.50;5062006;28;19920;-82
2022/12/17 16:03:20;;;;;;;;;;;;;;;-2.44;100.00;102666.84;5063259;28;19918;-81
2022/12/17 16:05:45;;;;;;;;;;;;;;;-2.47;100.00;102673.81;5062654;28;19924;-81
2022/12/17 16:08:11;;;;;;;;;;;;;;;-2.48;100.00;102678.13;5061680;28;19921;-81
2022/12/17 16:10:36;;;;;;;;;;;;;;;-2.52;100.00;102677.31;5061531;28;19916;-81
2022/12/17 16:13:01;;;;;;;;;;;;;;;-2.48;100.00;102678.13;5062264;28;20526;-81
2022/12/17 16:15:27;;;;;;;;;;;;;;;-2.54;100.00;102673.03;5062277;28;20182;-80
2022/12/17 16:17:52;;;;;;;;;;;;;;;-2.62;100.00;102673.13;5062304;28;19991;-81
2022/12/17 16:20:17;;;;;;;;;;;;;;;-2.61;100.00;102667.09;5061794;28;19996;-81
2022/12/17 16:22:43;;;;;;;;;;;;;;;-2.65;100.00;102673.19;5062469;28;19928;-81
2022/12/17 16:25:08;;;;;;;;;;;;;;;-2.67;100.00;102693.03;5046319;28;19913;-81
2022/12/17 16:27:34;;;;;;;;;;;;;;;-2.70;100.00;102680.13;5063108;28;19923;-81
2022/12/17 16:29:59;;;;;;;;;;;;;;;-2.72;100.00;102671.56;5061394;28;20395;-82
2022/12/17 16:32:24;;;;;;;;;;;;;;;-2.69;100.00;102694.78;5062404;28;19989;-81
2022/12/17 16:34:50;;;;;;;;;;;;;;;-2.74;100.00;102694.84;5061702;28;20034;-82
2022/12/17 16:37:15;;;;;;;;;;;;;;;-2.76;100.00;102688.84;5060701;28;19947;-81
2022/12/17 16:39:40;;;;;;;;;;;;;;;-2.77;100.00;102688.84;5061712;28;19917;-82
2022/12/17 16:42:06;;;;;;;;;;;;;;;-2.81;100.00;102694.91;5045149;28;19917;-81
2022/12/17 16:44:31;;;;;;;;;;;;;;;-2.84;100.00;102702.72;5062464;28;19917;-79
2022/12/17 16:46:56;;;;;;;;;;;;;;;-2.90;100.00;102681.25;5068955;28;19958;-82
2022/12/17 16:49:22;;;;;;;;;;;;;;;-2.92;100.00;102692.47;5056577;28;20066;-82
2022/12/17 16:51:49;;;;;;;;;;;;;;;-2.88;100.00;102688.97;5065167;28;19917;-81
2022/12/17 16:54:15;;;;;;;;;;;;;;;-2.95;100.00;102684.75;5074524;28;20237;-81
2022/12/17 16:56:41;;;;;;;;;;;;;;;-3.04;100.00;102683.13;5059245;28;19966;-82
2022/12/17 16:59:08;;;;;;;;;;;;;;;-3.05;100.00;102683.13;5058345;28;19940;-81
2022/12/17 17:01:33;;;;;;;;;;;;;;;-3.04;100.00;102677.97;5058492;28;20351;-82
2022/12/17 17:03:59;;;;;;;;;;;;;;;-3.03;100.00;102694.31;5058553;28;19916;-81
2022/12/17 17:06:25;;;;;;;;;;;;;;;-3.04;100.00;102690.88;5060132;28;19917;-81
2022/12/17 17:08:50;;;;;;;;;;;;;;;-3.00;100.00;102699.47;5058866;28;19912;-81
2022/12/17 17:11:20;;;;;;;;;;;;;;;-3.07;100.00;102702.97;5058947;28;20287;-82
2022/12/17 17:13:45;;;;;;;;;;;;;;;-3.00;100.00;102714.97;5057694;28;20437;-81
2022/12/17 17:16:10;;;;;;;;;;;;;;;-3.07;100.00;102711.59;5057752;28;20055;-81
2022/12/17 17:18:36;;;;;;;;;;;;;;;-3.00;100.00;102714.97;5058679;28;19917;-80
2022/12/17 17:21:11;;;;;;;;;;;;;;;-3.00;100.00;102722.72;5058450;28;19921;-82
2022/12/17 17:23:37;;;;;;;;;;;;;;;-2.99;100.00;102709.75;5056321;28;20419;-82
2022/12/17 17:26:02;;;;;;;;;;;;;;;-3.01;100.00;102714.09;5057389;28;19993;-81
2022/12/17 17:28:28;;;;;;;;;;;;;;;-2.98;100.00;102719.25;5056918;28;19916;-82
2022/12/17 17:31:03;;;;;;;;;;;;;;;-2.96;100.00;102717.50;5058244;28;19912;-82
2022/12/17 17:33:29;;;;;;;;;;;;;;;-2.99;100.00;102706.31;5058699;28;19924;-82
2022/12/17 17:36:01;;;;;;;;;;;;;;;-3.01;100.00;102721.84;5073923;28;19913;-81
2022/12/17 17:38:26;;;;;;;;;;;;;;;-3.03;100.00;102731.31;5058778;28;19939;-81
2022/12/17 17:40:55;;;;;;;;;;;;;;;-3.03;100.00;102723.56;5056465;28;19920;-81
2022/12/17 17:43:20;;;;;;;;;;;;;;;-3.01;100.00;102714.09;5057542;28;19919;-81
2022/12/17 17:45:45;;;;;;;;;;;;;;;-3.11;100.00;102722.81;5059051;28;19909;-81
2022/12/17 17:48:11;;;;;;;;;;;;;;;-3.07;100.00;102728.78;5039714;28;20019;-81
2022/12/17 17:50:36;;;;;;;;;;;;;;;-3.08;100.00;102727.09;5056440;28;19920;-81
2022/12/17 17:53:01;;;;;;;;;;;;;;;-3.06;100.00;102733.09;5047664;28;19917;-81
2022/12/17 17:55:26;;;;;;;;;;;;;;;-3.15;100.00;102728.88;5058731;28;20367;-82
2022/12/17 17:57:52;;;;;;;;;;;;;;;-3.11;100.00;102734.00;5041129;28;20269;-81
2022/12/17 18:00:17;;;;;;;;;;;;;;;-3.19;100.00;102724.63;5056464;28;19967;-81
2022/12/17 18:02:42;;;;;;;;;;;;;;;-3.23;100.00;102726.38;5056962;28;19920;-80
2022/12/17 18:05:07;;;;;;;;;;;;;;;-3.27;100.00;102737.59;5057278;28;20380;-81
2022/12/17 18:07:33;;;;;;;;;;;;;;;-3.29;100.00;102733.31;5058400;28;19959;-82
2022/12/17 18:09:58;;;;;;;;;;;;;;;-3.31;100.00;102726.47;5040738;28;20431;-82
2022/12/17 18:15:08;;;;;;;;;;;;;;;-3.32;100.00;102740.22;5058079;28;19958;-80
2022/12/17 18:17:34;;;;;;;;;;;;;;;-3.28;100.00;102730.72;5056384;28;19912;-81
2022/12/17 18:19:59;;;;;;;;;;;;;;;-3.35;100.00;102735.09;5040970;28;19912;-81
2022/12/17 18:22:24;;;;;;;;;;;;;;;-3.33;100.00;102738.53;5040362;28;20007;-81
2022/12/17 18:24:49;;;;;;;;;;;;;;;-3.32;100.00;102747.13;5057681;28;19921;-82
2022/12/17 18:27:15;;;;;;;;;;;;;;;-3.31;100.00;102744.53;5057733;28;20636;-81
2022/12/17 18:29:40;;;;;;;;;;;;;;;-3.28;100.00;102750.53;5038982;28;20027;-81
2022/12/17 18:32:05;;;;;;;;;;;;;;;-3.33;100.00;102756.59;5039923;28;19967;-82
2022/12/17 18:34:32;;;;;;;;;;;;;;;-3.31;100.00;102756.56;5056445;28;19916;-81
2022/12/17 18:36:57;;;;;;;;;;;;;;;-3.32;100.00;102755.72;5063905;28;19919;-81
2022/12/17 18:39:23;;;;;;;;;;;;;;;-3.34;100.00;102762.63;5039952;28;20431;-80
2022/12/17 18:44:36;;;;;;;;;;;;;;;-3.33;100.00;102763.50;5056174;28;20429;-81
2022/12/17 18:47:01;;;;;;;;;;;;;;;-3.36;100.00;102769.53;5057330;28;19920;-81
2022/12/17 18:49:26;;;;;;;;;;;;;;;-3.31;100.00;102751.41;5055749;28;19948;-82
2022/12/17 18:51:53;;;;;;;;;;;;;;;-3.33;100.00;102758.34;5057003;28;19918;-81
2022/12/17 18:54:20;;;;;;;;;;;;;;;-3.34;100.00;102762.63;5054877;28;19917;-82
2022/12/17 18:56:46;;;;;;;;;;;;;;;-3.29;100.00;102764.31;5056142;28;19912;-82
2022/12/17 18:59:12;;;;;;;;;;;;;;;-3.20;100.00;102772.84;5056743;28;19923;-82
2022/12/17 19:01:37;;;;;;;;;;;;;;;-3.28;100.00;102786.69;5057607;28;19912;-82
2022/12/17 19:04:07;;;;;;;;;;;;;;;-3.28;100.00;102786.69;5053520;28;19977;-86
2022/12/17 19:06:33;;;;;;;;;;;;;;;-3.27;100.00;102788.38;5055865;28;20657;-84
2022/12/17 19:08:58;;;;;;;;;;;;;;;-3.23;100.00;102797.81;5053235;28;19923;-84
2022/12/17 19:11:23;;;;;;;;;;;;;;;-3.23;100.00;102801.25;5056521;28;19912;-84
2022/12/17 19:13:49;;;;;;;;;;;;;;;-3.21;100.00;102794.34;5054127;28;19921;-83
2022/12/17 19:16:14;;;;;;;;;;;;;;;-3.20;100.00;102800.38;5056056;28;20011;-83
2022/12/17 19:18:39;;;;;;;;;;;;;;;-3.28;100.00;102786.69;5056376;28;19958;-85
2022/12/17 19:21:06;;;;;;;;;;;;;;;-3.31;100.00;102785.84;5053761;28;20538;-83
2022/12/17 19:23:31;;;;;;;;;;;;;;;-3.28;100.00;102795.28;5052732;28;19920;-81
2022/12/17 19:26:03;;;;;;;;;;;;;;;-3.24;100.00;102791.81;5053769;28;19923;-84
2022/12/17 19:28:28;;;;;;;;;;;;;;;-3.24;100.00;102796.97;5069995;28;20607;-85
2022/12/17 19:30:57;;;;;;;;;;;;;;;-3.33;100.00;102803.06;5051674;28;19922;-84
2022/12/17 19:33:22;;;;;;;;;;;;;;;-3.32;100.00;102807.34;5052579;28;19917;-84
2022/12/17 19:35:47;;;;;;;;;;;;;;;-3.30;100.00;102802.19;5053877;28;20550;-83
2022/12/17 19:38:13;;;;;;;;;;;;;;;-3.38;100.00;102804.81;5052319;28;20041;-83
2022/12/17 19:40:39;;;;;;;;;;;;;;;-3.35;100.00;102801.38;5054056;28;19924;-85
2022/12/17 19:43:05;;;;;;;;;;;;;;;-3.38;100.00;102804.81;5053349;28;20752;-84
2022/12/17 19:45:30;;;;;;;;;;;;;;;-3.33;100.00;102794.47;5052999;28;19916;-85
2022/12/17 19:47:55;;;;;;;;;;;;;;;-3.33;100.00;102805.66;5054631;28;19924;-89
2022/12/17 19:50:21;;;;;;;;;;;;;;;-3.31;100.00;102803.94;5036338;28;20338;-85
2022/12/17 19:52:46;;;;;;;;;;;;;;;-3.34;100.00;102816.84;5054205;28;20034;-88
2022/12/17 19:55:11;;;;;;;;;;;;;;;-3.29;100.00;102818.53;5036545;28;19912;-85
2022/12/17 19:57:36;;;;;;;;;;;;;;;-3.55;100.00;102749.88;5054938;28;19920;-86
2022/12/17 20:00:02;;;;;;;;;;;;;;;-3.31;100.00;102809.09;5054226;28;20311;-85
2022/12/17 20:02:27;;;;;;;;;;;;;;;-3.35;100.00;102803.97;5056568;28;19920;-84
2022/12/17 20:04:52;;;;;;;;;;;;;;;-3.47;100.00;102811.78;5052970;28;19917;-87
2022/12/17 20:07:18;;;;;;;;;;;;;;;-3.43;100.00;102803.16;5038210;28;19920;-85
2022/12/17 20:09:43;;;;;;;;;;;;;;;-3.41;100.00;102799.69;5052452;28;19917;-86
2022/12/17 20:12:09;;;;;;;;;;;;;;;-3.45;100.00;102792.84;5040171;28;19951;-87
2022/12/17 20:14:36;;;;;;;;;;;;;;;-3.44;100.00;102797.16;5054980;28;19908;-85
2022/12/17 20:17:03;;;;;;;;;;;;;;;-3.47;100.00;102806.63;5055459;28;19952;-85
2022/12/17 20:19:33;;;;;;;;;;;;;;;-3.53;100.00;102803.25;5053939;28;20276;-85
2022/12/17 20:21:59;;;;;;;;;;;;;;;-3.55;100.00;102801.50;5058100;28;20486;-83
2022/12/17 20:24:25;;;;;;;;;;;;;;;-3.49;100.00;102805.78;5059764;28;20418;-84
2022/12/17 20:26:51;;;;;;;;;;;;;;;-3.55;100.00;102809.25;5059769;28;19995;-85
2022/12/17 20:29:20;;;;;;;;;;;;;;;-3.53;100.00;102812.69;5058580;28;19959;-84
2022/12/17 20:31:45;;;;;;;;;;;;;;;-3.51;100.00;102810.94;5059568;28;20151;-84
2022/12/17 20:34:12;;;;;;;;;;;;;;;-3.55;100.00;102802.41;5058242;28;19952;-83
2022/12/17 20:36:38;;;;;;;;;;;;;;;-3.55;100.00;102798.94;5058451;28;19913;-84
2022/12/17 20:39:03;;;;;;;;;;;;;;;-3.59;100.00;102807.59;5057946;28;19916;-84
2022/12/17 20:41:29;;;;;;;;;;;;;;;-3.52;100.00;102809.25;5059349;28;19917;-85
2022/12/17 20:43:55;;;;;;;;;;;;;;;-3.48;100.00;102810.94;5058544;28;19971;-84
2022/12/17 20:46:21;;;;;;;;;;;;;;;-3.48;100.00;102815.22;5058651;28;20287;-81
2022/12/17 20:48:47;;;;;;;;;;;;;;;-3.54;100.00;102811.00;5044139;28;20432;-83
2022/12/17 20:51:13;;;;;;;;;;;;;;;-3.58;100.00;102814.44;5060264;28;19961;-83
2022/12/17 20:53:39;;;;;;;;;;;;;;;-3.56;100.00;102804.97;5058967;28;19908;-83
2022/12/17 20:56:05;;;;;;;;;;;;;;;-3.57;100.00;102818.72;5058345;28;19933;-84
2022/12/17 20:58:31;;;;;;;;;;;;;;;-3.62;100.00;102821.34;5058526;28;20478;-82
2022/12/17 21:01:04;;;;;;;;;;;;;;;-3.62;100.00;102815.34;5042276;28;20955;-83
2022/12/17 21:03:31;;;;;;;;;;;;;;;-3.57;100.00;102811.00;5059192;28;19913;-83
2022/12/17 21:06:01;;;;;;;;;;;;;;;-3.45;100.00;102820.38;5059046;28;20280;-84
2022/12/17 21:08:27;;;;;;;;;;;;;;;-3.38;100.00;102827.22;5058961;28;19913;-82
2022/12/17 21:10:55;;;;;;;;;;;;;;;-3.34;100.00;102827.16;5058535;28;19964;-82
2022/12/17 21:13:29;;;;;;;;;;;;;;;-3.24;100.00;102829.69;5074949;28;19912;-82
2022/12/17 21:15:56;;;;;;;;;;;;;;;-3.33;100.00;102833.22;5042595;28;19917;-84
2022/12/17 21:18:21;;;;;;;;;;;;;;;-3.26;100.00;102846.94;5058918;28;19918;-83
2022/12/17 21:21:19;;;;;;;;;;;;;;;-3.12;100.00;102855.41;5057991;28;20003;-83
2022/12/17 21:23:45;;;;;;;;;;;;;;;-3.19;100.00;102853.75;4970359;28;19928;-82
2022/12/17 21:26:10;;;;;;;;;;;;;;;-3.35;100.00;102837.53;4986177;28;19977;-81
2022/12/17 21:28:36;;;;;;;;;;;;;;;-3.38;100.00;102848.72;4970680;28;19949;-84
2022/12/17 21:31:02;;;;;;;;;;;;;;;-3.36;100.00;102846.13;4986148;28;19996;-84
2022/12/17 21:33:28;;;;;;;;;;;;;;;-3.44;100.00;102838.47;4969655;28;19928;-81
2022/12/17 21:36:00;;;;;;;;;;;;;;;-3.62;100.00;102843.72;4969127;28;19914;-81
2022/12/17 21:38:26;;;;;;;;;;;;;;;-3.68;100.00;102839.47;4977726;28;19917;-81
2022/12/17 21:40:51;;;;;;;;;;;;;;;-3.72;100.00;102841.22;4987201;28;19906;-82
2022/12/17 21:43:16;;;;;;;;;;;;;;;-3.72;100.00;102830.88;4969488;28;19928;-84
2022/12/17 21:45:42;;;;;;;;;;;;;;;-3.76;100.00;102847.25;4986296;28;19924;-82
2022/12/17 21:48:08;;;;;;;;;;;;;;;-3.76;100.00;102841.25;4970065;28;19922;-84
2022/12/17 21:50:37;;;;;;;;;;;;;;;-3.76;100.00;102847.25;4986039;28;20349;-83
2022/12/17 21:53:02;;;;;;;;;;;;;;;-3.78;100.00;102846.41;4986539;28;19913;-84
2022/12/17 21:55:28;;;;;;;;;;;;;;;-3.70;100.00;102848.06;4985614;28;20595;-83
2022/12/17 21:57:54;;;;;;;;;;;;;;;-3.73;100.00;102841.22;4985617;28;19996;-83
2022/12/17 22:00:20;;;;;;;;;;;;;;;-3.69;100.00;102847.22;5039210;28;19912;-82
2022/12/17 22:02:46;;;;;;;;;;;;;;;-3.62;100.00;102846.31;5057168;28;20880;-83
2022/12/17 22:05:11;;;;;;;;;;;;;;;-3.69;100.00;102850.66;5058322;28;19956;-83
2022/12/17 22:07:36;;;;;;;;;;;;;;;-3.71;100.00;102849.81;5040204;28;20435;-83
2022/12/17 22:10:01;;;;;;;;;;;;;;;-3.63;100.00;102855.78;5039924;28;19923;-81
2022/12/17 22:15:11;;;;;;;;;;;;;;;-3.61;100.00;102866.09;5056019;28;19970;-83
2022/12/17 22:17:36;;;;;;;;;;;;;;;-3.63;100.00;102862.69;5056450;28;19955;-82
2022/12/17 22:20:03;;;;;;;;;;;;;;;-3.60;100.00;102870.38;5056335;28;19912;-82
2022/12/17 22:22:28;;;;;;;;;;;;;;;-3.70;100.00;102864.44;5064288;28;19916;-82
2022/12/17 22:24:53;;;;;;;;;;;;;;;-3.79;100.00;102869.63;5057697;28;19924;-82
2022/12/17 22:27:18;;;;;;;;;;;;;;;-3.75;100.00;102873.91;5040255;28;19920;-83
2022/12/17 22:35:11;;;;;;;;;;;;;;;-3.79;100.00;102873.09;5056018;28;19923;-83
2022/12/17 22:37:37;;;;;;;;;;;;;;;-3.73;100.00;102880.75;5040236;28;19917;-82
2022/12/17 22:40:02;;;;;;;;;;;;;;;-3.75;100.00;102879.06;5039667;28;20027;-83
2022/12/17 22:45:11;;;;;;;;;;;;;;;-3.72;100.00;102874.75;5056557;28;20287;-83
2022/12/17 22:47:36;;;;;;;;;;;;;;;-3.78;100.00;102864.47;5056417;28;19925;-83
2022/12/17 22:50:02;;;;;;;;;;;;;;;-3.74;100.00;102868.75;5040183;28;20458;-83
2022/12/17 22:52:27;;;;;;;;;;;;;;;-3.75;100.00;102871.31;5055455;28;20037;-83
2022/12/17 22:54:52;;;;;;;;;;;;;;;-3.79;100.00;102879.94;5039672;28;19912;-81
2022/12/17 22:57:18;;;;;;;;;;;;;;;-3.89;100.00;102873.97;5039933;28;20284;-82
2022/12/17 22:59:43;;;;;;;;;;;;;;;-3.96;100.00;102872.31;5055966;28;19919;-81
2022/12/17 23:02:10;;;;;;;;;;;;;;;-4.01;100.00;102874.88;5039617;28;20002;-83
2022/12/17 23:04:35;;;;;;;;;;;;;;;-4.01;100.00;102861.13;5055728;28;19912;-83
2022/12/17 23:07:00;;;;;;;;;;;;;;;-4.04;100.00;102864.59;5039646;28;20425;-83
2022/12/17 23:09:25;;;;;;;;;;;;;;;-4.00;100.00;102862.88;5057130;28;19924;-83
2022/12/17 23:11:51;;;;;;;;;;;;;;;-3.99;100.00;102860.25;5062075;28;19923;-82
2022/12/17 23:14:16;;;;;;;;;;;;;;;-4.01;100.00;102866.28;5040768;28;20372;-82
2022/12/17 23:16:43;;;;;;;;;;;;;;;-4.08;100.00;102869.78;5072892;28;19940;-84
2022/12/17 23:19:09;;;;;;;;;;;;;;;-4.11;100.00;102864.63;5050057;28;19920;-83
2022/12/17 23:21:34;;;;;;;;;;;;;;;-4.13;100.00;102870.63;5038390;28;19924;-84
2022/12/17 23:23:59;;;;;;;;;;;;;;;-4.11;100.00;102869.78;5056021;28;20368;-83
2022/12/17 23:26:26;;;;;;;;;;;;;;;-4.16;100.00;102862.94;5040560;28;19938;-82
2022/12/17 23:28:56;;;;;;;;;;;;;;;-4.20;100.00;102857.78;5062348;28;19912;-83
2022/12/17 23:31:21;;;;;;;;;;;;;;;-4.15;100.00;102861.19;5053490;28;19965;-81
2022/12/17 23:33:47;;;;;;;;;;;;;;;-4.21;100.00;102864.66;5048643;28;19924;-81
2022/12/17 23:36:13;;;;;;;;;;;;;;;-4.21;100.00;102864.66;5050565;28;20004;-83
2022/12/17 23:38:38;;;;;;;;;;;;;;;-4.21;100.00;102864.66;5036874;28;20141;-82
2022/12/17 23:41:11;;;;;;;;;;;;;;;-4.29;100.00;102861.25;5052964;28;19928;-83
2022/12/17 23:43:36;;;;;;;;;;;;;;;-4.36;100.00;102864.69;5051317;28;19923;-83
2022/12/17 23:46:01;;;;;;;;;;;;;;;-4.20;100.00;102881.84;5033867;28;19925;-83
2022/12/17 23:48:29;;;;;;;;;;;;;;;-4.22;100.00;102883.56;5049613;28;19968;-81
2022/12/17 23:50:54;;;;;;;;;;;;;;;-4.26;100.00;102886.16;5051009;28;19916;-83
2022/12/17 23:53:19;;;;;;;;;;;;;;;-4.19;100.00;102886.13;5050490;28;19920;-83
2022/12/17 23:55:44;;;;;;;;;;;;;;;-4.24;100.00;102890.47;5050640;28;19920;-81
2022/12/17 23:58:10;;;;;;;;;;;;;;;-4.23;100.00;102888.72;5052148;28;20351;-80
